KCUH

Cushing Municipal Airport

Cushing, Oklahoma, USA
METAR KCUH 201255Z AUTO 17010KT 10SM OVC015 10/08 A2987 RMK AO2 T00980077
Observed Flight Rules
Jan-20 @ 12:55 UTC (17 minutes ago) Marginal Visual Flight Rules
Wind Visibility Clouds
170° at 10 knots 10 miles
  • Overcast at 1,500' AGL
Temperatures Readings
Current 10°C / 50°F
Dewpoint 8°C / 46°F
Humidity 88%
Altimeter 29.87" Hg
Pressure 1012 hPa
Elevation 279
METAR KCUH 201255Z AUTO 17010KT 10SM OVC015 10/08 A2987 RMK AO2 T00980077
Observed Flight Rules
Jan-20 @ 12:55 UTC
(17 minutes ago)
MVFR
Wind Visibility
170° at 10 knots 10 miles
Clouds
  • Overcast at 1,500' AGL
Temperature Dewpoint
10°C / 50°F 8°C / 46°F
Humidity Altimeter Pressure
88% 29.87" Hg 1012 hPa